createdAt,value
2023-03-11T09:39:22.347Z,1.77
2023-03-11T09:42:11.080Z,2.30
2023-03-11T09:44:42.587Z,2.17
2023-03-11T09:47:21.693Z,2.20
2023-03-11T09:50:07.408Z,2.30
2023-03-11T09:52:46.269Z,2.42
2023-03-11T09:55:25.796Z,2.10
2023-03-11T09:57:56.244Z,2.47
2023-03-11T10:00:25.305Z,1.90
2023-03-11T10:02:52.791Z,2.55
2023-03-11T10:05:27.581Z,2.30
2023-03-11T10:08:13.240Z,2.00
2023-03-11T10:10:50.255Z,2.40
2023-03-11T10:13:32.518Z,2.53
2023-03-11T10:16:19.428Z,2.20
2023-03-11T10:18:56.960Z,1.70
2023-03-11T10:21:26.992Z,1.42
2023-03-11T10:24:02.158Z,1.65
2023-03-11T10:26:45.800Z,1.98
2023-03-11T10:29:19.180Z,1.52
2023-03-11T10:31:49.403Z,2.15
2023-03-11T10:34:40.044Z,1.50
2023-03-11T10:37:46.560Z,1.83
2023-03-11T10:40:32.316Z,2.00
2023-03-11T10:43:04.594Z,2.10
2023-03-11T10:45:41.636Z,1.88
2023-03-11T10:48:14.543Z,1.70
2023-03-11T10:51:14.915Z,1.98
2023-03-11T10:54:03.666Z,1.80
2023-03-11T10:56:37.140Z,1.80
2023-03-11T10:59:06.865Z,1.80
2023-03-11T11:01:34.583Z,1.70
2023-03-11T11:04:02.548Z,1.70
2023-03-11T11:06:37.489Z,1.52
2023-03-11T11:09:22.349Z,1.52
2023-03-11T11:12:16.619Z,1.85
2023-03-11T11:14:52.719Z,2.00
2023-03-11T11:17:31.287Z,2.10
2023-03-11T11:19:59.738Z,1.90
2023-03-11T11:22:28.577Z,1.42
2023-03-11T11:24:58.260Z,1.70
2023-03-11T11:27:29.396Z,1.80
2023-03-11T11:30:12.507Z,1.70
2023-03-11T11:35:15.244Z,1.60
2023-03-11T11:37:46.625Z,1.90
2023-03-11T11:40:17.303Z,2.15
2023-03-11T11:42:52.586Z,2.05
2023-03-11T11:45:33.394Z,1.60
2023-03-11T11:48:08.797Z,1.63
2023-03-11T11:50:42.151Z,1.70
2023-03-11T11:53:20.940Z,1.42
2023-03-11T11:55:52.710Z,1.60
2023-03-11T11:58:21.555Z,2.08
2023-03-11T12:01:07.117Z,1.73
2023-03-11T12:04:06.898Z,1.90
2023-03-11T12:06:50.835Z,1.50
2023-03-11T12:09:39.507Z,2.00
2023-03-11T12:12:21.814Z,1.63
2023-03-11T12:15:21.017Z,1.73
2023-03-11T12:17:52.733Z,1.77
2023-03-11T12:20:54.618Z,1.95
2023-03-11T12:23:46.150Z,1.65
2023-03-11T12:26:22.240Z,1.55
2023-03-11T12:29:24.645Z,1.58
2023-03-11T12:31:53.812Z,1.58
2023-03-11T12:34:24.939Z,1.35
2023-03-11T12:36:53.239Z,1.20
2023-03-11T12:39:32.932Z,1.92
2023-03-11T12:42:38.570Z,1.10
2023-03-11T12:45:43.263Z,1.38
2023-03-11T12:48:28.773Z,1.77
2023-03-11T12:50:59.737Z,1.23
2023-03-11T12:53:45.419Z,1.20
2023-03-11T12:56:25.303Z,1.70
2023-03-11T12:59:04.419Z,1.25
2023-03-11T13:01:56.820Z,1.45
2023-03-11T13:04:27.518Z,1.40
2023-03-11T13:07:05.506Z,1.90
2023-03-11T13:09:33.003Z,1.50
2023-03-11T13:12:00.305Z,1.40
2023-03-11T13:14:32.915Z,1.88
2023-03-11T13:17:26.116Z,1.63
2023-03-11T13:19:55.736Z,1.55
2023-03-11T13:22:43.636Z,1.38
2023-03-11T13:25:29.901Z,1.55
2023-03-11T13:28:27.835Z,1.65
2023-03-11T13:31:16.245Z,1.65
2023-03-11T13:33:58.211Z,1.35
2023-03-11T13:37:00.395Z,1.35
2023-03-11T13:39:39.447Z,1.27
2023-03-11T13:42:20.294Z,1.48
2023-03-11T13:44:48.096Z,1.40
2023-03-11T13:47:17.806Z,1.63
2023-03-11T13:50:02.907Z,1.23
2023-03-11T13:52:37.777Z,1.15
2023-03-11T13:55:15.839Z,1.15
2023-03-11T13:57:53.543Z,1.25
2023-03-11T14:00:28.701Z,1.23
2023-03-11T14:02:59.346Z,1.40
2023-03-11T14:05:31.081Z,1.48
2023-03-11T14:08:19.466Z,1.35
2023-03-11T14:11:01.333Z,1.10
2023-03-11T14:13:38.384Z,1.20
2023-03-11T14:16:16.011Z,1.10
2023-03-11T14:18:46.689Z,1.38
2023-03-11T14:21:20.061Z,1.60
2023-03-11T14:23:50.186Z,1.50
2023-03-11T14:26:23.213Z,1.55
2023-03-11T14:31:34.737Z,1.30
2023-03-11T14:36:54.448Z,0.90
2023-03-11T14:39:28.218Z,1.13
2023-03-11T14:42:19.083Z,1.48
2023-03-11T14:45:18.157Z,1.30
2023-03-11T14:48:16.536Z,1.42
2023-03-11T14:50:50.055Z,1.33
2023-03-11T14:53:26.279Z,1.80
2023-03-11T14:55:59.808Z,1.40
2023-03-11T14:58:49.166Z,1.20
2023-03-11T15:01:26.484Z,1.30
2023-03-11T15:03:58.763Z,1.02
2023-03-11T15:06:30.872Z,1.15
2023-03-11T15:09:07.683Z,1.23
2023-03-11T15:12:01.992Z,1.30
2023-03-11T15:14:32.766Z,1.05
2023-03-11T15:17:42.748Z,1.20
2023-03-11T15:20:31.435Z,1.60
2023-03-11T15:23:04.490Z,1.33
2023-03-11T15:28:29.266Z,1.45
2023-03-11T15:31:15.210Z,1.80
2023-03-11T15:33:43.579Z,1.60
2023-03-11T15:36:42.453Z,1.35
2023-03-11T15:39:17.818Z,1.75
2023-03-11T15:41:48.213Z,1.83
2023-03-11T15:44:28.171Z,1.15
2023-03-11T15:46:55.355Z,1.58
2023-03-11T15:49:22.691Z,1.80
2023-03-11T15:51:49.816Z,1.52
2023-03-11T15:54:17.014Z,1.80
2023-03-11T15:56:45.437Z,1.70
2023-03-11T15:59:17.312Z,2.20
2023-03-11T16:01:46.488Z,2.50
2023-03-11T16:04:16.204Z,3.25
2023-03-11T16:06:44.373Z,2.05
2023-03-11T16:09:12.389Z,1.92
2023-03-11T16:11:40.981Z,1.65
2023-03-11T16:14:16.521Z,1.73
2023-03-11T16:16:44.831Z,1.80
2023-03-11T16:19:12.322Z,1.33
2023-03-11T16:21:49.655Z,1.50
2023-03-11T16:24:23.612Z,1.48
2023-03-11T16:26:52.921Z,1.50
2023-03-11T16:29:20.704Z,1.90
2023-03-11T16:31:49.419Z,1.60
2023-03-11T16:34:16.838Z,1.20
2023-03-11T16:36:44.116Z,1.98
2023-03-11T16:39:11.980Z,1.80
2023-03-11T16:41:44.535Z,1.40
2023-03-11T16:44:11.980Z,1.83
2023-03-11T16:46:39.162Z,2.13
2023-03-11T16:49:06.585Z,2.03
2023-03-11T16:51:34.150Z,2.65
2023-03-11T16:54:01.503Z,2.25
2023-03-11T16:56:28.674Z,2.53
2023-03-11T16:58:55.816Z,2.35
2023-03-11T17:01:23.094Z,2.45
2023-03-11T17:03:51.097Z,2.30
2023-03-11T17:06:19.753Z,2.30
2023-03-11T17:08:49.703Z,2.50
2023-03-11T17:11:18.154Z,2.53
2023-03-11T17:13:45.664Z,2.05
2023-03-11T17:16:13.718Z,2.13
2023-03-11T17:18:41.985Z,2.83
2023-03-11T17:21:12.084Z,3.05
2023-03-11T17:23:39.866Z,2.85
2023-03-11T17:26:12.960Z,2.38
2023-03-11T17:28:40.671Z,2.22
2023-03-11T17:31:15.950Z,2.38
2023-03-11T17:33:44.296Z,2.67
2023-03-11T17:36:16.274Z,2.03
2023-03-11T17:38:45.542Z,2.00
2023-03-11T17:41:17.587Z,2.00
2023-03-11T17:43:46.215Z,2.20
2023-03-11T17:46:16.046Z,1.98
2023-03-11T17:48:45.352Z,1.90
2023-03-11T17:51:15.840Z,1.83
2023-03-11T17:53:45.980Z,2.00
2023-03-11T17:56:15.420Z,1.90
2023-03-11T17:58:42.772Z,1.77
2023-03-11T18:01:16.219Z,1.98
2023-03-11T18:03:43.629Z,1.90
2023-03-11T18:06:11.841Z,2.00
2023-03-11T18:08:39.217Z,3.85
2023-03-11T18:11:09.991Z,1.80
2023-03-11T18:13:38.844Z,2.08
2023-03-11T18:16:09.584Z,1.88
2023-03-11T18:18:37.867Z,2.03
2023-03-11T18:21:11.479Z,2.13
2023-03-11T18:23:39.116Z,2.03
2023-03-11T18:26:08.539Z,2.90
2023-03-11T18:28:36.151Z,2.40
2023-03-11T18:31:14.674Z,2.10
2023-03-11T18:33:46.629Z,2.15
2023-03-11T18:36:21.455Z,3.03
2023-03-11T18:38:49.249Z,2.80
2023-03-11T18:41:16.681Z,2.45
2023-03-11T18:43:43.862Z,2.72
2023-03-11T18:46:16.469Z,2.40
2023-03-11T18:48:43.541Z,2.55
2023-03-11T18:51:12.850Z,2.97
2023-03-11T18:53:42.442Z,3.15
2023-03-11T18:56:13.860Z,2.47
2023-03-11T18:58:41.248Z,2.42
2023-03-11T19:01:15.294Z,2.05
2023-03-11T19:03:44.210Z,2.20
2023-03-11T19:06:13.409Z,2.25
2023-03-11T19:08:40.815Z,2.00
2023-03-11T19:11:09.581Z,1.90
2023-03-11T19:13:46.715Z,2.33
2023-03-11T19:16:17.723Z,2.17
2023-03-11T19:18:45.637Z,1.80
2023-03-11T19:21:14.969Z,1.88
2023-03-11T19:23:42.234Z,2.10
2023-03-11T19:26:09.850Z,1.75
2023-03-11T19:28:37.259Z,1.67
2023-03-11T19:31:05.352Z,2.20
2023-03-11T19:33:32.784Z,1.80
2023-03-11T19:36:02.501Z,2.25
2023-03-11T19:38:31.161Z,2.13
2023-03-11T19:41:01.559Z,1.95
2023-03-11T19:43:29.492Z,2.42
2023-03-11T19:45:57.015Z,2.08
2023-03-11T19:48:24.407Z,2.65
2023-03-11T19:50:52.444Z,2.25
2023-03-11T19:53:21.924Z,4.53
2023-03-11T19:55:52.623Z,3.22
2023-03-11T19:58:21.195Z,2.42
2023-03-11T20:00:48.537Z,2.03
2023-03-11T20:03:17.248Z,2.22
2023-03-11T20:05:46.797Z,1.33
2023-03-11T20:08:17.261Z,2.42
2023-03-11T20:10:47.246Z,1.50
2023-03-11T20:13:16.638Z,1.60
2023-03-11T20:15:44.684Z,1.50
2023-03-11T20:18:13.452Z,1.75
2023-03-11T20:20:44.240Z,1.70
2023-03-11T20:23:13.480Z,1.88
2023-03-11T20:25:42.192Z,2.55
2023-03-11T20:28:10.942Z,2.17
2023-03-11T20:30:40.246Z,2.15
2023-03-11T20:33:08.396Z,1.92
2023-03-11T20:35:36.276Z,2.30
2023-03-11T20:38:04.763Z,1.90
2023-03-11T20:40:32.461Z,2.90
2023-03-11T20:43:00.182Z,2.13
2023-03-11T20:45:27.595Z,2.55
2023-03-11T20:47:55.841Z,2.00
2023-03-11T20:50:23.422Z,2.03
2023-03-11T20:52:51.537Z,1.70
2023-03-11T20:55:18.937Z,2.38
2023-03-11T20:57:46.811Z,1.80
2023-03-11T21:00:14.328Z,2.40
2023-03-11T21:02:43.476Z,3.17
2023-03-11T21:05:12.367Z,2.65
2023-03-11T21:07:40.549Z,2.80
2023-03-11T21:10:12.772Z,3.38
2023-03-11T21:12:39.989Z,3.37
2023-03-11T21:15:09.006Z,3.72
2023-03-11T21:17:37.389Z,3.50
2023-03-11T21:20:06.576Z,3.38
2023-03-11T21:22:34.098Z,3.65
2023-03-11T21:25:01.174Z,3.20
2023-03-11T21:27:28.507Z,3.70
2023-03-11T21:29:56.013Z,3.30
2023-03-11T21:32:25.001Z,4.25
2023-03-11T21:34:55.968Z,4.38
2023-03-11T21:37:23.400Z,3.92
2023-03-11T21:39:50.612Z,3.90
2023-03-11T21:42:18.250Z,4.53
2023-03-11T21:44:45.693Z,4.03
2023-03-11T21:47:12.813Z,4.68
2023-03-11T21:49:40.123Z,4.15
2023-03-11T21:52:07.534Z,4.57
2023-03-11T21:54:34.733Z,4.15
2023-03-11T21:57:01.880Z,3.95
2023-03-11T21:59:30.758Z,4.20
2023-03-11T22:02:01.540Z,4.90
2023-03-11T22:04:30.061Z,3.45
2023-03-11T22:06:57.589Z,4.03
2023-03-11T22:09:26.122Z,3.95
2023-03-11T22:11:54.266Z,4.35
2023-03-11T22:14:21.447Z,3.60
2023-03-11T22:16:48.910Z,4.78
2023-03-11T22:19:16.040Z,4.25
2023-03-11T22:21:43.769Z,4.18
2023-03-11T22:24:11.144Z,4.25
2023-03-11T22:26:38.438Z,4.07
2023-03-11T22:29:08.583Z,5.00
2023-03-11T22:31:36.056Z,3.97
2023-03-11T22:34:03.232Z,4.57
2023-03-11T22:36:30.349Z,4.82
2023-03-11T22:38:57.440Z,4.88
2023-03-11T22:41:24.566Z,5.10
2023-03-11T22:43:51.704Z,4.32
2023-03-11T22:46:18.852Z,4.10
2023-03-11T22:48:46.065Z,4.65
2023-03-11T22:51:13.375Z,4.65
2023-03-11T22:53:40.512Z,4.53
2023-03-11T22:56:10.655Z,4.28
2023-03-11T22:58:38.323Z,4.38
2023-03-11T23:01:06.388Z,4.03
2023-03-11T23:03:34.844Z,3.53
2023-03-11T23:06:06.742Z,3.63
2023-03-11T23:08:34.621Z,4.68
2023-03-11T23:11:03.947Z,3.47
2023-03-11T23:13:32.417Z,4.32
2023-03-11T23:16:05.332Z,3.97
2023-03-11T23:18:32.495Z,3.92
2023-03-11T23:20:59.550Z,4.40
2023-03-11T23:23:26.918Z,5.28
2023-03-11T23:25:54.181Z,3.72
2023-03-11T23:28:21.530Z,3.78
2023-03-11T23:30:48.623Z,4.68
2023-03-11T23:33:15.688Z,4.03
2023-03-11T23:35:43.099Z,4.00
2023-03-11T23:38:10.577Z,5.03
2023-03-11T23:40:40.826Z,4.15
2023-03-11T23:43:08.229Z,4.20
2023-03-11T23:45:35.564Z,3.70
2023-03-11T23:48:02.666Z,4.22
2023-03-11T23:50:29.764Z,4.47
2023-03-11T23:52:56.931Z,4.15
2023-03-11T23:55:24.115Z,4.60
2023-03-11T23:57:51.305Z,3.75
